createdAt,value
2023-04-17T00:01:17.749Z,82.77
2023-04-17T00:03:47.328Z,82.81
2023-04-17T00:06:19.027Z,83.05
2023-04-17T00:08:46.779Z,82.85
2023-04-17T00:11:14.436Z,83.22
2023-04-17T00:13:44.016Z,83.12
2023-04-17T00:16:12.770Z,83.00
2023-04-17T00:18:40.688Z,83.15
2023-04-17T00:21:08.481Z,83.39
2023-04-17T00:23:37.589Z,83.10
2023-04-17T00:26:05.382Z,83.24
2023-04-17T00:28:33.760Z,83.18
2023-04-17T00:31:01.534Z,83.24
2023-04-17T00:33:29.226Z,83.37
2023-04-17T00:35:57.174Z,83.65
2023-04-17T00:38:24.905Z,83.31
2023-04-17T00:40:54.033Z,83.75
2023-04-17T00:43:21.711Z,83.77
2023-04-17T00:45:49.735Z,83.71
2023-04-17T00:48:17.992Z,83.70
2023-04-17T00:50:46.284Z,83.87
2023-04-17T00:53:14.448Z,83.80
2023-04-17T00:55:43.193Z,83.77
2023-04-17T00:58:12.724Z,83.73
2023-04-17T01:00:40.461Z,83.76
2023-04-17T01:03:08.493Z,83.79
2023-04-17T01:05:38.306Z,84.03
2023-04-17T01:08:06.645Z,83.80
2023-04-17T01:10:34.331Z,83.99
2023-04-17T01:13:05.873Z,84.17
2023-04-17T01:15:35.642Z,83.88
2023-04-17T01:18:03.643Z,84.21
2023-04-17T01:20:31.462Z,84.25
2023-04-17T01:22:59.312Z,84.19
2023-04-17T01:25:29.209Z,84.50
2023-04-17T01:27:57.288Z,84.16
2023-04-17T01:30:25.431Z,84.11
2023-04-17T01:32:55.038Z,84.32
2023-04-17T01:35:23.035Z,84.27
2023-04-17T01:37:50.766Z,84.63
2023-04-17T01:40:18.582Z,84.44
2023-04-17T01:42:47.764Z,84.28
2023-04-17T01:45:15.464Z,84.32
2023-04-17T01:47:43.156Z,84.51
2023-04-17T01:50:11.889Z,84.54
2023-04-17T01:52:40.115Z,84.70
2023-04-17T01:55:08.318Z,84.88
2023-04-17T01:57:36.063Z,84.78
2023-04-17T02:00:07.939Z,84.73
2023-04-17T02:02:35.782Z,84.94
2023-04-17T02:05:03.683Z,84.88
2023-04-17T02:07:31.334Z,84.78
2023-04-17T02:09:58.994Z,84.80
2023-04-17T02:12:26.766Z,84.85
2023-04-17T02:14:54.669Z,85.01
2023-04-17T02:17:23.773Z,85.13
2023-04-17T02:19:51.436Z,85.27
2023-04-17T02:22:19.439Z,85.80
2023-04-17T02:24:47.200Z,85.84
2023-04-17T02:27:14.894Z,85.84
2023-04-17T02:29:42.673Z,86.21
2023-04-17T02:32:10.465Z,85.95
2023-04-17T02:34:39.589Z,85.96
2023-04-17T02:37:07.252Z,86.08
2023-04-17T02:39:35.279Z,85.75
2023-04-17T02:42:03.177Z,85.94
2023-04-17T02:44:30.949Z,85.88
2023-04-17T02:46:58.715Z,85.85
2023-04-17T02:49:26.486Z,85.92
2023-04-17T02:51:55.619Z,86.29
2023-04-17T02:54:23.365Z,86.24
2023-04-17T02:56:53.313Z,86.54
2023-04-17T02:59:20.973Z,86.43
2023-04-17T03:01:48.688Z,86.15
2023-04-17T03:04:16.545Z,86.66
2023-04-17T03:06:44.335Z,86.51
2023-04-17T03:09:14.952Z,86.69
2023-04-17T03:11:42.649Z,86.28
2023-04-17T03:14:10.315Z,86.30
2023-04-17T03:16:38.076Z,86.34
2023-04-17T03:19:05.899Z,86.17
2023-04-17T03:21:33.709Z,86.17
2023-04-17T03:24:01.633Z,86.66
2023-04-17T03:26:30.778Z,86.54
2023-04-17T03:28:58.387Z,86.52
2023-04-17T03:31:27.863Z,86.48
2023-04-17T03:33:55.840Z,86.81
2023-04-17T03:36:23.492Z,86.53
2023-04-17T03:38:51.125Z,86.58
2023-04-17T03:41:18.772Z,86.69
2023-04-17T03:43:47.846Z,86.45
2023-04-17T03:46:15.837Z,86.68
2023-04-17T03:48:43.519Z,86.36
2023-04-17T03:51:11.168Z,86.52
2023-04-17T03:53:38.784Z,86.21
2023-04-17T03:56:06.751Z,86.28
2023-04-17T03:58:34.540Z,86.39
2023-04-17T04:01:03.671Z,86.25
2023-04-17T04:03:31.576Z,86.48
2023-04-17T04:05:59.435Z,86.11
2023-04-17T04:08:27.056Z,86.13
2023-04-17T04:10:54.744Z,86.25
2023-04-17T04:13:22.450Z,86.24
2023-04-17T04:15:50.283Z,86.52
2023-04-17T04:18:19.467Z,86.63
2023-04-17T04:20:47.131Z,86.15
2023-04-17T04:23:16.681Z,86.42
2023-04-17T04:25:44.504Z,86.51
2023-04-17T04:28:13.291Z,86.35
2023-04-17T04:30:40.995Z,86.14
2023-04-17T04:33:08.931Z,86.28
2023-04-17T04:35:38.564Z,86.09
2023-04-17T04:38:06.396Z,86.15
2023-04-17T04:40:36.155Z,85.86
2023-04-17T04:43:04.395Z,86.11
2023-04-17T04:45:32.112Z,86.25
2023-04-17T04:47:59.880Z,86.25
2023-04-17T04:50:27.600Z,85.83
2023-04-17T04:52:56.631Z,86.01
2023-04-17T04:55:24.588Z,86.22
2023-04-17T04:57:53.426Z,86.08
2023-04-17T05:00:21.571Z,86.36
2023-04-17T05:02:49.628Z,86.07
2023-04-17T05:05:17.522Z,86.20
2023-04-17T05:07:45.258Z,86.07
2023-04-17T05:10:14.397Z,85.81
2023-04-17T05:12:42.466Z,85.95
2023-04-17T05:15:11.367Z,86.09
2023-04-17T05:17:39.144Z,86.13
2023-04-17T05:20:09.209Z,85.99
2023-04-17T05:22:36.944Z,86.25
2023-04-17T05:25:05.120Z,86.37
2023-04-17T05:27:34.250Z,86.16
2023-04-17T05:30:01.914Z,86.17
2023-04-17T05:32:31.175Z,86.29
2023-04-17T05:34:58.937Z,86.34
2023-04-17T05:37:26.718Z,86.55
2023-04-17T05:39:54.391Z,86.22
2023-04-17T05:42:22.032Z,86.27
2023-04-17T05:44:51.233Z,86.24
2023-04-17T05:47:19.333Z,86.17
2023-04-17T05:49:48.626Z,86.38
2023-04-17T05:52:16.316Z,86.00
2023-04-17T05:54:43.984Z,86.05
2023-04-17T05:57:11.652Z,86.16
2023-04-17T05:59:39.403Z,86.12
2023-04-17T06:02:08.801Z,86.14
2023-04-17T06:04:36.858Z,86.05
2023-04-17T06:07:06.250Z,86.21
2023-04-17T06:09:34.058Z,86.61
2023-04-17T06:12:01.799Z,85.94
2023-04-17T06:14:29.431Z,86.12
2023-04-17T06:16:57.145Z,86.01
2023-04-17T06:19:26.340Z,86.19
2023-04-17T06:21:54.036Z,85.95
2023-04-17T06:24:21.681Z,86.01
2023-04-17T06:26:49.356Z,86.08
2023-04-17T06:29:17.014Z,85.81
2023-04-17T06:31:44.720Z,85.58
2023-04-17T06:34:12.393Z,85.55
2023-04-17T06:36:41.624Z,85.70
2023-04-17T06:39:09.465Z,85.50
2023-04-17T06:41:37.378Z,85.56
2023-04-17T06:44:05.130Z,85.66
2023-04-17T06:46:33.006Z,85.17
2023-04-17T06:49:01.698Z,85.26
2023-04-17T06:51:29.423Z,84.92
2023-04-17T06:53:59.241Z,85.19
2023-04-17T06:56:26.918Z,85.20
2023-04-17T06:58:54.956Z,85.05
2023-04-17T07:01:22.691Z,85.07
2023-04-17T07:03:50.618Z,85.33
2023-04-17T07:06:19.470Z,85.52
2023-04-17T07:08:47.170Z,85.01
2023-04-17T07:11:16.278Z,85.08
2023-04-17T07:13:43.986Z,85.17
2023-04-17T07:16:11.756Z,84.70
2023-04-17T07:18:39.515Z,84.87
2023-04-17T07:21:07.428Z,84.63
2023-04-17T07:23:35.073Z,83.95
2023-04-17T07:26:02.820Z,83.98
2023-04-17T07:28:32.027Z,84.39
2023-04-17T07:30:59.782Z,84.09
2023-04-17T07:33:27.735Z,83.60
2023-04-17T07:35:55.468Z,83.41
2023-04-17T07:38:23.217Z,83.17
2023-04-17T07:40:50.877Z,83.33
2023-04-17T07:43:18.623Z,83.25
2023-04-17T07:45:48.935Z,83.22
2023-04-17T07:48:18.612Z,82.98
2023-04-17T07:50:46.431Z,83.10
2023-04-17T07:53:14.131Z,83.18
2023-04-17T07:55:41.823Z,82.35
2023-04-17T07:58:11.368Z,82.06
2023-04-17T08:00:39.234Z,81.96
2023-04-17T08:03:08.578Z,81.56
2023-04-17T08:05:36.516Z,80.18
2023-04-17T08:08:05.606Z,80.32
2023-04-17T08:10:33.313Z,79.79
2023-04-17T08:13:01.975Z,79.93
2023-04-17T08:15:29.915Z,79.21
2023-04-17T08:17:58.446Z,78.99
2023-04-17T08:20:28.094Z,78.38
2023-04-17T08:22:56.337Z,78.20
2023-04-17T08:25:24.141Z,79.29
2023-04-17T08:27:52.921Z,78.25
2023-04-17T08:30:20.676Z,78.11
2023-04-17T08:32:50.211Z,77.45
2023-04-17T08:35:18.177Z,78.11
2023-04-17T08:37:47.632Z,77.58
2023-04-17T08:40:17.053Z,77.14
2023-04-17T08:42:47.632Z,77.77
2023-04-17T08:45:16.534Z,76.84
2023-04-17T08:47:44.824Z,76.88
2023-04-17T08:50:14.249Z,77.57
2023-04-17T08:52:43.426Z,77.72
2023-04-17T08:55:15.203Z,75.93
2023-04-17T08:57:56.789Z,75.38
2023-04-17T09:00:28.517Z,75.35
2023-04-17T09:02:57.769Z,75.01
2023-04-17T09:05:26.507Z,74.06
2023-04-17T09:08:08.172Z,73.90
2023-04-17T09:10:38.210Z,73.80
2023-04-17T09:13:06.275Z,73.39
2023-04-17T09:15:34.568Z,73.50
2023-04-17T09:18:02.367Z,73.44
2023-04-17T09:20:30.335Z,73.24
2023-04-17T09:23:02.852Z,72.75
2023-04-17T09:25:31.093Z,72.33
2023-04-17T09:28:11.572Z,71.96
2023-04-17T09:30:40.008Z,72.26
2023-04-17T09:33:08.768Z,72.62
2023-04-17T09:35:40.094Z,71.45
2023-04-17T09:38:08.280Z,71.39
2023-04-17T09:40:39.916Z,71.06
2023-04-17T09:43:10.889Z,70.80
2023-04-17T09:45:42.487Z,70.58
2023-04-17T09:48:12.020Z,70.30
2023-04-17T09:50:40.379Z,70.63
2023-04-17T09:53:09.244Z,69.65
2023-04-17T09:55:38.160Z,70.58
2023-04-17T09:58:07.436Z,70.85
2023-04-17T10:00:37.884Z,70.44
2023-04-17T10:03:05.864Z,70.95
2023-04-17T10:05:33.776Z,70.53
2023-04-17T10:08:01.936Z,70.14
2023-04-17T10:10:33.309Z,70.78
2023-04-17T10:13:02.511Z,70.22
2023-04-17T10:15:30.859Z,69.57
2023-04-17T10:18:20.086Z,70.72
2023-04-17T10:20:48.503Z,70.49
2023-04-17T10:23:31.161Z,69.96
2023-04-17T10:26:41.128Z,68.27
2023-04-17T10:29:08.895Z,68.14
2023-04-17T10:32:17.087Z,67.66
2023-04-17T10:34:46.235Z,68.40
2023-04-17T10:37:15.518Z,66.47
2023-04-17T10:39:59.127Z,66.62
2023-04-17T10:42:27.950Z,66.21
2023-04-17T10:44:58.845Z,65.91
2023-04-17T10:47:32.434Z,67.30
2023-04-17T10:50:03.976Z,66.97
2023-04-17T10:52:43.499Z,66.75
2023-04-17T10:55:14.326Z,65.54
2023-04-17T10:58:03.593Z,66.00
2023-04-17T11:00:33.833Z,65.95
2023-04-17T11:03:02.295Z,66.79
2023-04-17T11:05:32.440Z,66.38
2023-04-17T11:08:00.218Z,66.68
2023-04-17T11:10:28.235Z,65.13
2023-04-17T11:12:56.731Z,64.97
2023-04-17T11:15:28.799Z,64.58
2023-04-17T11:17:57.865Z,63.92
2023-04-17T11:20:26.657Z,62.69
2023-04-17T11:22:56.187Z,64.01
2023-04-17T11:25:25.100Z,63.71
2023-04-17T11:27:53.764Z,65.38
2023-04-17T11:30:28.895Z,62.73
2023-04-17T11:32:58.768Z,61.65
2023-04-17T11:35:30.512Z,61.99
2023-04-17T11:38:12.125Z,61.14
2023-04-17T11:40:46.904Z,61.07
2023-04-17T11:43:14.717Z,62.05
2023-04-17T11:45:44.099Z,61.51
2023-04-17T11:48:12.940Z,61.69
2023-04-17T11:50:42.182Z,61.34
2023-04-17T11:53:14.319Z,63.07
2023-04-17T11:55:42.026Z,61.49
2023-04-17T11:58:11.248Z,61.19
2023-04-17T12:00:40.715Z,60.58
2023-04-17T12:03:34.635Z,62.24
2023-04-17T12:06:04.190Z,61.19
2023-04-17T12:08:44.013Z,61.45
2023-04-17T12:11:17.931Z,61.32
2023-04-17T12:13:46.047Z,60.82
2023-04-17T12:16:13.779Z,58.31
2023-04-17T12:18:41.591Z,58.24
2023-04-17T12:21:09.384Z,58.39
2023-04-17T12:23:38.390Z,59.55
2023-04-17T12:26:06.162Z,59.09
2023-04-17T12:28:33.908Z,58.40
2023-04-17T12:31:01.731Z,56.37
2023-04-17T12:33:29.654Z,55.83
2023-04-17T12:35:57.683Z,57.73
2023-04-17T12:38:25.509Z,58.33
2023-04-17T12:40:54.622Z,56.49
2023-04-17T12:43:22.366Z,55.21
2023-04-17T12:45:50.448Z,55.81
2023-04-17T12:48:18.221Z,56.40
2023-04-17T12:50:45.923Z,55.47
2023-04-17T12:53:16.132Z,55.21
2023-04-17T12:55:44.638Z,55.15
2023-04-17T12:58:14.447Z,55.38
2023-04-17T13:00:43.478Z,54.02
2023-04-17T13:03:12.311Z,54.20
2023-04-17T13:05:40.566Z,54.43
2023-04-17T13:08:12.497Z,53.90
2023-04-17T13:10:40.386Z,52.40
2023-04-17T13:13:08.305Z,53.23
2023-04-17T13:15:37.601Z,51.42
2023-04-17T13:18:05.778Z,50.36
2023-04-17T13:20:33.527Z,51.52
2023-04-17T13:23:01.524Z,50.32
2023-04-17T13:25:30.362Z,49.81
2023-04-17T13:27:58.654Z,51.82
2023-04-17T13:30:26.349Z,49.33
2023-04-17T13:32:55.446Z,47.27
2023-04-17T13:35:23.215Z,48.24
2023-04-17T13:37:50.966Z,48.17
2023-04-17T13:40:18.751Z,49.61
2023-04-17T13:42:46.464Z,51.20
2023-04-17T13:45:14.239Z,50.73
2023-04-17T13:47:41.866Z,48.65
2023-04-17T13:50:11.509Z,48.49
2023-04-17T13:52:39.273Z,48.83
2023-04-17T13:55:11.883Z,47.70
2023-04-17T13:57:39.741Z,47.81
2023-04-17T14:00:10.732Z,48.19
2023-04-17T14:02:38.690Z,47.23
2023-04-17T14:05:07.582Z,47.18
2023-04-17T14:07:36.720Z,48.24
2023-04-17T14:10:04.770Z,45.27
2023-04-17T14:12:32.534Z,45.84
2023-04-17T14:15:00.218Z,46.30
2023-04-17T14:17:27.964Z,45.79
2023-04-17T14:19:55.750Z,44.61
2023-04-17T14:22:23.432Z,47.11
2023-04-17T14:24:52.633Z,47.21
2023-04-17T14:27:20.361Z,47.82
2023-04-17T14:29:48.082Z,47.11
2023-04-17T14:32:15.782Z,47.20
2023-04-17T14:34:43.722Z,46.12
2023-04-17T14:37:13.638Z,46.93
2023-04-17T14:39:43.260Z,47.85
2023-04-17T14:42:12.333Z,46.99
2023-04-17T14:44:40.082Z,45.87
2023-04-17T14:47:08.520Z,45.59
2023-04-17T14:49:36.275Z,46.73
2023-04-17T14:52:03.920Z,45.97
2023-04-17T14:54:31.651Z,45.41
2023-04-17T14:56:59.299Z,46.25
2023-04-17T14:59:28.957Z,45.95
2023-04-17T15:01:56.778Z,44.37
2023-04-17T15:04:24.633Z,43.27
2023-04-17T15:06:52.477Z,43.06
2023-04-17T15:09:20.174Z,43.15
2023-04-17T15:11:47.928Z,43.76
2023-04-17T15:14:15.681Z,43.51
2023-04-17T15:16:44.812Z,42.59
2023-04-17T15:19:12.746Z,43.57
2023-04-17T15:21:40.565Z,44.36
2023-04-17T15:24:08.477Z,44.90
2023-04-17T15:26:36.169Z,43.13
2023-04-17T15:29:04.077Z,43.82
2023-04-17T15:31:31.769Z,42.62
2023-04-17T15:34:00.818Z,42.38
2023-04-17T15:36:31.517Z,43.09
2023-04-17T15:38:59.204Z,40.63
2023-04-17T15:41:26.900Z,41.54
2023-04-17T15:43:54.579Z,41.04
2023-04-17T15:46:22.684Z,40.84
2023-04-17T15:49:05.002Z,40.75
2023-04-17T15:51:39.014Z,40.55
2023-04-17T15:54:07.995Z,40.56
2023-04-17T15:56:35.671Z,41.56
2023-04-17T15:59:03.437Z,40.91
2023-04-17T16:01:31.299Z,40.44
2023-04-17T16:04:40.165Z,40.76
2023-04-17T16:07:07.906Z,38.91
2023-04-17T16:09:35.641Z,36.83
2023-04-17T16:12:05.499Z,36.34
2023-04-17T16:14:33.205Z,37.51
2023-04-17T16:17:01.170Z,36.74
2023-04-17T16:19:28.822Z,39.08
2023-04-17T16:21:57.888Z,38.67
2023-04-17T16:24:26.122Z,39.92
2023-04-17T16:26:57.493Z,41.52
2023-04-17T16:29:25.275Z,39.78
2023-04-17T16:31:53.146Z,39.96
2023-04-17T16:34:21.508Z,39.88
2023-04-17T16:36:49.543Z,40.11
2023-04-17T16:39:18.639Z,40.38
2023-04-17T16:41:46.475Z,40.59
2023-04-17T16:44:14.362Z,40.75
2023-04-17T16:47:03.160Z,39.78
2023-04-17T16:49:29.751Z,39.17
2023-04-17T16:51:57.635Z,39.36
2023-04-17T16:54:26.726Z,39.50
2023-04-17T16:56:54.424Z,40.32
2023-04-17T16:59:22.151Z,39.88
2023-04-17T17:01:50.647Z,40.43
2023-04-17T17:04:18.463Z,41.24
2023-04-17T17:06:46.186Z,41.67
2023-04-17T17:09:14.045Z,40.59
2023-04-17T17:11:43.219Z,39.92
2023-04-17T17:14:10.876Z,40.72
2023-04-17T17:16:38.732Z,40.55
2023-04-17T17:19:06.446Z,40.83
2023-04-17T17:21:34.293Z,40.76
2023-04-17T17:24:01.988Z,40.67
2023-04-17T17:26:29.720Z,41.34
2023-04-17T17:28:58.738Z,40.58
2023-04-17T17:31:26.393Z,40.92
2023-04-17T17:33:54.974Z,41.63
2023-04-17T17:36:22.721Z,41.23
2023-04-17T17:38:55.726Z,41.35
2023-04-17T17:41:23.705Z,42.92
2023-04-17T17:43:51.425Z,42.16
2023-04-17T17:46:21.502Z,42.38
2023-04-17T17:48:49.251Z,42.70
2023-04-17T17:51:16.910Z,42.90
2023-04-17T17:53:44.571Z,42.81
2023-04-17T17:56:14.791Z,43.88
2023-04-17T17:58:48.894Z,43.27
2023-04-17T18:01:17.308Z,43.89
2023-04-17T18:03:48.935Z,43.40
2023-04-17T18:06:17.356Z,43.71
2023-04-17T18:08:45.047Z,44.04
2023-04-17T18:11:13.852Z,43.99
2023-04-17T18:13:41.669Z,45.20
2023-04-17T18:16:09.515Z,44.15
2023-04-17T18:18:39.711Z,44.37
2023-04-17T18:21:12.408Z,45.00
2023-04-17T18:23:40.789Z,44.52
2023-04-17T18:26:10.522Z,45.65
2023-04-17T18:28:39.039Z,45.25
2023-04-17T18:31:06.985Z,45.57
2023-04-17T18:33:34.950Z,45.65
2023-04-17T18:36:03.496Z,45.53
2023-04-17T18:38:33.054Z,46.12
2023-04-17T18:41:02.838Z,46.09
2023-04-17T18:43:32.709Z,46.19
2023-04-17T18:46:04.176Z,46.30
2023-04-17T18:48:32.059Z,46.68
2023-04-17T18:51:00.161Z,46.56
2023-04-17T18:53:27.843Z,46.79
2023-04-17T18:55:57.904Z,47.02
2023-04-17T18:58:27.598Z,46.53
2023-04-17T19:00:55.473Z,46.95
2023-04-17T19:03:23.323Z,46.94
2023-04-17T19:05:52.997Z,47.12
2023-04-17T19:08:22.712Z,47.25
2023-04-17T19:10:50.466Z,46.79
2023-04-17T19:13:21.311Z,47.12
2023-04-17T19:15:51.154Z,47.17
2023-04-17T19:18:18.993Z,47.15
2023-04-17T19:20:47.870Z,47.57
2023-04-17T19:23:15.562Z,47.93
2023-04-17T19:25:43.420Z,47.92
2023-04-17T19:28:11.400Z,47.72
2023-04-17T19:30:40.847Z,48.04
2023-04-17T19:33:08.794Z,48.07
2023-04-17T19:35:36.577Z,48.27
2023-04-17T19:38:04.292Z,48.79
2023-04-17T19:40:32.165Z,49.09
2023-04-17T19:43:01.391Z,49.22
2023-04-17T19:45:29.391Z,49.71
2023-04-17T19:47:58.516Z,49.93
2023-04-17T19:50:27.468Z,50.32
2023-04-17T19:52:55.891Z,50.55
2023-04-17T19:55:23.730Z,50.65
2023-04-17T19:57:52.219Z,51.18
2023-04-17T20:00:20.719Z,51.25
2023-04-17T20:02:48.540Z,50.99
2023-04-17T20:05:18.468Z,51.22
2023-04-17T20:07:46.135Z,51.40
2023-04-17T20:10:13.869Z,51.23
2023-04-17T20:12:41.594Z,51.19
2023-04-17T20:15:10.684Z,51.60
2023-04-17T20:17:38.482Z,51.68
2023-04-17T20:20:07.610Z,51.63
2023-04-17T20:22:36.682Z,51.79
2023-04-17T20:25:04.765Z,52.11
2023-04-17T20:27:32.432Z,52.41
2023-04-17T20:30:00.217Z,52.09
2023-04-17T20:32:27.883Z,52.30
2023-04-17T20:34:55.764Z,52.82
2023-04-17T20:37:23.970Z,52.37
2023-04-17T20:39:53.090Z,52.56
2023-04-17T20:42:20.818Z,52.68
2023-04-17T20:44:48.446Z,52.62
2023-04-17T20:47:16.206Z,52.78
2023-04-17T20:49:43.937Z,52.69
2023-04-17T20:52:11.599Z,52.63
2023-04-17T20:54:39.295Z,52.67
2023-04-17T20:57:08.339Z,52.80
2023-04-17T20:59:37.210Z,52.53
2023-04-17T21:02:05.038Z,52.41
2023-04-17T21:04:33.008Z,52.20
2023-04-17T21:07:01.018Z,52.51
2023-04-17T21:09:28.792Z,52.92
2023-04-17T21:11:56.524Z,52.50
2023-04-17T21:14:25.853Z,51.38
2023-04-17T21:16:56.422Z,51.93
2023-04-17T21:19:25.987Z,50.83
2023-04-17T21:21:53.732Z,50.75
2023-04-17T21:24:21.851Z,50.38
2023-04-17T21:26:49.520Z,49.79
2023-04-17T21:29:17.325Z,49.27
2023-04-17T21:31:46.581Z,49.40
2023-04-17T21:34:14.440Z,49.73
2023-04-17T21:36:42.377Z,49.75
2023-04-17T21:39:10.106Z,48.78
2023-04-17T21:41:38.298Z,48.53
2023-04-17T21:44:06.068Z,48.59
2023-04-17T21:46:33.731Z,48.93
2023-04-17T21:49:02.756Z,48.47
2023-04-17T21:51:31.490Z,48.85
2023-04-17T21:53:59.250Z,48.80
2023-04-17T21:56:28.252Z,49.40
2023-04-17T21:58:58.192Z,49.03
2023-04-17T22:01:25.984Z,48.74
2023-04-17T22:03:56.857Z,49.06
2023-04-17T22:06:31.420Z,48.87
2023-04-17T22:08:59.245Z,48.38
2023-04-17T22:11:29.442Z,48.56
2023-04-17T22:13:57.295Z,48.55
2023-04-17T22:16:25.020Z,48.56
2023-04-17T22:18:52.953Z,47.39
2023-04-17T22:21:58.719Z,47.31
2023-04-17T22:24:44.970Z,47.00
2023-04-17T22:27:49.124Z,47.14
2023-04-17T22:30:34.140Z,46.81
2023-04-17T22:33:20.385Z,46.75
2023-04-17T22:35:48.097Z,46.91
2023-04-17T22:38:35.864Z,46.41
2023-04-17T22:41:21.544Z,45.65
2023-04-17T22:44:07.801Z,45.97
2023-04-17T22:47:30.542Z,45.50
2023-04-17T22:50:17.879Z,45.23
2023-04-17T22:53:21.585Z,45.33
2023-04-17T22:56:26.505Z,45.32
2023-04-17T22:59:49.327Z,45.23
2023-04-17T23:02:36.880Z,45.10
2023-04-17T23:05:23.267Z,45.59
2023-04-17T23:07:51.180Z,45.24
2023-04-17T23:10:19.071Z,45.48
2023-04-17T23:12:46.864Z,45.30
2023-04-17T23:15:14.690Z,45.56
2023-04-17T23:17:43.785Z,45.18
2023-04-17T23:20:12.857Z,45.38
2023-04-17T23:22:40.627Z,45.45
2023-04-17T23:25:09.294Z,45.61
2023-04-17T23:27:37.087Z,46.01
2023-04-17T23:30:05.373Z,45.96
2023-04-17T23:32:33.036Z,45.68
2023-04-17T23:35:02.171Z,45.45
2023-04-17T23:37:30.032Z,45.73
2023-04-17T23:39:57.822Z,46.16
2023-04-17T23:42:25.639Z,45.75
2023-04-17T23:44:53.376Z,45.86
2023-04-17T23:47:21.171Z,45.53
2023-04-17T23:49:48.850Z,45.64
2023-04-17T23:52:18.949Z,45.46
2023-04-17T23:54:46.567Z,45.81
2023-04-17T23:57:14.175Z,45.53
2023-04-17T23:59:42.044Z,45.91
